Time;durP1;ratioP1;P1;durP2;ratioP2;P2;SDS_P1;SDS_P2;PMS_P1;PMS_P2;Temp;Humidity;BMP_temperature;BMP_pressure;BME280_temperature;BME280_humidity;BME280_pressure;Samples;Min_cycle;Max_cycle;Signal;HPM_P1;HPM_P2
2024/01/05 00:00:38;;;;;;;20.35;11.38;;;;;;;;;;5021332;28;20035;-74
2024/01/05 00:03:05;;;;;;;22.20;11.25;;;;;;;;;;5038610;28;20041;-73
2024/01/05 00:05:35;;;;;;;27.17;11.68;;;;;;;;;;5025098;28;20099;-73
2024/01/05 00:08:01;;;;;;;25.13;10.88;;;;;;;;;;5038315;28;20483;-73
2024/01/05 00:10:28;;;;;;;24.33;11.70;;;;;;;;;;5024363;28;20026;-73
2024/01/05 00:12:54;;;;;;;22.25;11.32;;;;;;;;;;5020734;28;20033;-72
2024/01/05 00:15:21;;;;;;;22.15;10.85;;;;;;;;;;5024974;28;20037;-74
2024/01/05 00:17:49;;;;;;;22.23;11.27;;;;;;;;;;5022586;28;20028;-73
2024/01/05 00:20:16;;;;;;;23.65;12.43;;;;;;;;;;5027436;28;20036;-73
2024/01/05 00:25:50;;;;;;;26.88;10.73;;;;;;;;;;5020715;28;20226;-75
2024/01/05 00:28:18;;;;;;;;;;;;;;;;;;5046536;28;20041;-72
2024/01/05 00:30:44;;;;;;;25.98;11.30;;;;;;;;;;5044171;28;19912;-74
2024/01/05 00:33:12;;;;;;;21.13;12.50;;;;;;;;;;5044502;28;20075;-73
2024/01/05 00:35:39;;;;;;;27.95;13.52;;;;;;;;;;5043873;28;20044;-73
2024/01/05 00:38:06;;;;;;;25.88;11.80;;;;;;;;;;5042748;28;20033;-73
2024/01/05 00:40:33;;;;;;;24.70;13.20;;;;;;;;;;5043415;28;20176;-72
2024/01/05 00:43:01;;;;;;;26.52;12.80;;;;;;;;;;5041116;28;20036;-73
2024/01/05 00:45:28;;;;;;;26.70;14.18;;;;;;;;;;5043401;28;20612;-72
2024/01/05 00:47:56;;;;;;;24.42;13.57;;;;;;;;;;5043147;28;20032;-73
2024/01/05 00:50:23;;;;;;;29.67;15.23;;;;;;;;;;5045367;28;20040;-73
2024/01/05 00:52:50;;;;;;;24.88;13.80;;;;;;;;;;5041786;28;20090;-72
2024/01/05 00:55:18;;;;;;;23.13;12.43;;;;;;;;;;5043329;28;20089;-72
2024/01/05 00:57:45;;;;;;;22.55;12.32;;;;;;;;;;5042317;28;20098;-74
2024/01/05 01:00:13;;;;;;;23.35;12.63;;;;;;;;;;5045971;28;20039;-74
2024/01/05 01:02:41;;;;;;;25.40;13.25;;;;;;;;;;5034351;28;20558;-72
2024/01/05 01:05:09;;;;;;;26.30;12.73;;;;;;;;;;5040587;28;20044;-74
2024/01/05 01:07:36;;;;;;;23.73;12.48;;;;;;;;;;5045003;28;20119;-75
2024/01/05 01:10:05;;;;;;;21.90;12.75;;;;;;;;;;5043007;28;20031;-74
2024/01/05 01:12:32;;;;;;;23.45;11.90;;;;;;;;;;5044731;28;20037;-74
2024/01/05 01:15:00;;;;;;;22.33;11.73;;;;;;;;;;5039220;28;20071;-74
2024/01/05 01:17:29;;;;;;;20.88;12.38;;;;;;;;;;5045134;28;20875;-73
2024/01/05 01:19:57;;;;;;;20.02;10.70;;;;;;;;;;5041723;28;20040;-72
2024/01/05 01:22:24;;;;;;;20.65;11.52;;;;;;;;;;5039077;28;20101;-73
2024/01/05 01:24:51;;;;;;;20.58;9.88;;;;;;;;;;5042410;28;20118;-73
2024/01/05 01:27:18;;;;;;;;;;;;;;;;;;5044715;28;20059;-74
2024/01/05 01:29:45;;;;;;;19.25;10.02;;;;;;;;;;5036071;28;19916;-73
2024/01/05 01:32:13;;;;;;;19.08;9.35;;;;;;;;;;5049006;28;20128;-73
2024/01/05 01:34:40;;;;;;;17.75;10.15;;;;;;;;;;5044590;28;20717;-73
2024/01/05 01:37:08;;;;;;;18.40;9.77;;;;;;;;;;5036944;28;20048;-73
2024/01/05 01:39:36;;;;;;;19.23;9.13;;;;;;;;;;5043123;28;20048;-72
2024/01/05 01:42:05;;;;;;;17.42;10.27;;;;;;;;;;5055831;28;20077;-72
2024/01/05 01:44:33;;;;;;;19.48;9.73;;;;;;;;;;5042456;28;20056;-72
2024/01/05 01:47:00;;;;;;;19.40;9.20;;;;;;;;;;5039458;28;20029;-71
2024/01/05 01:49:28;;;;;;;20.10;10.43;;;;;;;;;;5039843;28;20033;-72
2024/01/05 01:51:55;;;;;;;19.15;10.13;;;;;;;;;;5036784;28;20060;-73
2024/01/05 01:54:23;;;;;;;20.48;11.13;;;;;;;;;;5044316;28;20041;-73
2024/01/05 01:56:51;;;;;;;18.25;9.75;;;;;;;;;;5040082;28;20226;-72
2024/01/05 01:59:19;;;;;;;22.27;9.85;;;;;;;;;;5043191;28;20555;-73
2024/01/05 02:01:46;;;;;;;16.65;9.60;;;;;;;;;;5042712;28;20044;-73
2024/01/05 02:04:15;;;;;;;18.98;10.75;;;;;;;;;;5041266;28;20063;-72
2024/01/05 02:06:45;;;;;;;18.13;10.02;;;;;;;;;;5056453;28;20567;-72
2024/01/05 02:09:12;;;;;;;23.33;10.70;;;;;;;;;;5045070;28;20025;-73
2024/01/05 02:11:40;;;;;;;23.88;10.40;;;;;;;;;;5044487;28;20797;-74
2024/01/05 02:14:07;;;;;;;19.27;10.70;;;;;;;;;;5054870;28;20098;-74
2024/01/05 02:16:34;;;;;;;18.75;10.82;;;;;;;;;;5042652;28;20049;-74
2024/01/05 02:19:00;;;;;;;19.67;11.05;;;;;;;;;;5038954;28;20036;-73
2024/01/05 02:21:28;;;;;;;;;;;;;;;;;;5040914;28;20036;-73
2024/01/05 02:23:55;;;;;;;22.58;10.90;;;;;;;;;;5043168;28;19912;-73
2024/01/05 02:26:23;;;;;;;21.38;11.98;;;;;;;;;;5039677;28;20049;-73
2024/01/05 02:28:50;;;;;;;22.13;13.65;;;;;;;;;;5040908;28;20526;-73
2024/01/05 02:31:17;;;;;;;23.25;14.02;;;;;;;;;;5044063;28;20035;-72
2024/01/05 02:33:45;;;;;;;18.85;11.43;;;;;;;;;;5038777;28;20063;-73
2024/01/05 02:36:12;;;;;;;21.25;11.73;;;;;;;;;;5040156;28;20036;-73
2024/01/05 02:38:39;;;;;;;25.58;14.73;;;;;;;;;;5042798;28;20083;-74
2024/01/05 02:41:07;;;;;;;19.67;12.75;;;;;;;;;;5037238;28;20055;-73
2024/01/05 02:43:34;;;;;;;18.45;10.45;;;;;;;;;;5045544;28;20128;-72
2024/01/05 02:46:02;;;;;;;22.23;12.07;;;;;;;;;;5043817;28;20589;-72
2024/01/05 02:48:29;;;;;;;26.02;12.82;;;;;;;;;;5041022;28;20537;-71
2024/01/05 02:50:57;;;;;;;22.92;12.73;;;;;;;;;;5044294;28;20033;-73
2024/01/05 02:53:24;;;;;;;19.48;12.45;;;;;;;;;;5045921;28;20760;-72
2024/01/05 02:55:52;;;;;;;21.60;13.10;;;;;;;;;;5042878;28;20047;-72
2024/01/05 02:58:19;;;;;;;20.30;12.70;;;;;;;;;;5048200;28;20129;-75
2024/01/05 03:00:47;;;;;;;20.02;11.88;;;;;;;;;;5041744;28;20037;-72
2024/01/05 03:03:14;;;;;;;20.67;11.52;;;;;;;;;;5048711;28;20483;-73
2024/01/05 03:05:42;;;;;;;17.50;10.48;;;;;;;;;;5046646;28;20094;-72
2024/01/05 03:08:09;;;;;;;18.67;10.93;;;;;;;;;;5042309;28;20037;-72
2024/01/05 03:10:38;;;;;;;18.20;10.82;;;;;;;;;;5040869;28;20037;-72
2024/01/05 03:13:04;;;;;;;17.70;9.80;;;;;;;;;;5044181;28;20063;-74
2024/01/05 03:15:31;;;;;;;15.65;9.10;;;;;;;;;;5043664;28;20032;-72
2024/01/05 03:17:57;;;;;;;18.73;9.82;;;;;;;;;;5043197;28;20052;-72
2024/01/05 03:20:24;;;;;;;20.15;10.75;;;;;;;;;;5047082;28;20500;-72
2024/01/05 03:22:52;;;;;;;20.10;11.15;;;;;;;;;;5035303;28;20164;-72
2024/01/05 03:25:19;;;;;;;17.77;10.82;;;;;;;;;;5028290;28;20107;-72
2024/01/05 03:27:46;;;;;;;19.23;9.88;;;;;;;;;;5030371;28;20033;-72
2024/01/05 03:30:14;;;;;;;20.15;8.73;;;;;;;;;;5026168;28;20583;-72
2024/01/05 03:32:42;;;;;;;17.08;8.73;;;;;;;;;;5026470;28;20048;-76
2024/01/05 03:35:10;;;;;;;13.38;8.07;;;;;;;;;;5026656;28;20099;-72
2024/01/05 03:37:38;;;;;;;19.45;8.52;;;;;;;;;;5024699;28;20037;-74
2024/01/05 03:40:06;;;;;;;15.88;8.20;;;;;;;;;;5024534;28;20706;-74
2024/01/05 03:42:33;;;;;;;15.00;7.75;;;;;;;;;;5020312;28;20095;-74
2024/01/05 03:45:01;;;;;;;15.48;8.00;;;;;;;;;;5020689;28;20040;-74
2024/01/05 03:47:29;;;;;;;15.05;7.93;;;;;;;;;;5026146;28;20043;-73
2024/01/05 03:49:56;;;;;;;15.85;7.50;;;;;;;;;;5017932;28;20033;-74
2024/01/05 03:52:23;;;;;;;14.32;6.65;;;;;;;;;;5027831;28;20748;-74
2024/01/05 03:54:51;;;;;;;15.95;6.75;;;;;;;;;;5018574;28;20040;-73
2024/01/05 03:57:21;;;;;;;15.57;7.00;;;;;;;;;;5025422;28;20474;-73
2024/01/05 03:59:48;;;;;;;13.98;6.43;;;;;;;;;;5020679;28;20043;-72
2024/01/05 04:02:15;;;;;;;15.32;7.10;;;;;;;;;;5023692;28;20041;-73
2024/01/05 04:04:42;;;;;;;17.85;6.60;;;;;;;;;;5023716;28;20038;-72
2024/01/05 04:07:09;;;;;;;14.95;6.93;;;;;;;;;;5025680;28;20048;-73
2024/01/05 04:09:36;;;;;;;12.63;6.10;;;;;;;;;;5023411;28;20033;-72
2024/01/05 04:12:02;;;;;;;13.18;6.22;;;;;;;;;;5019451;28;20082;-74
2024/01/05 04:14:30;;;;;;;13.00;6.40;;;;;;;;;;5024575;28;20099;-73
2024/01/05 04:16:57;;;;;;;15.65;7.00;;;;;;;;;;5024069;28;20033;-72
2024/01/05 04:19:24;;;;;;;14.63;5.90;;;;;;;;;;5026043;28;20067;-72
2024/01/05 04:21:52;;;;;;;12.55;5.68;;;;;;;;;;5023872;28;20179;-74
2024/01/05 04:24:19;;;;;;;13.95;5.65;;;;;;;;;;5023360;28;20488;-73
2024/01/05 04:26:48;;;;;;;13.82;5.03;;;;;;;;;;5017536;28;20372;-71
2024/01/05 04:29:15;;;;;;;11.88;5.25;;;;;;;;;;5026533;28;20032;-72
2024/01/05 04:31:43;;;;;;;13.68;5.35;;;;;;;;;;5021366;28;20068;-73
2024/01/05 04:34:10;;;;;;;13.82;5.35;;;;;;;;;;5022169;28;20037;-72
2024/01/05 04:36:37;;;;;;;14.13;5.63;;;;;;;;;;5021567;28;20484;-74
2024/01/05 04:39:05;;;;;;;11.73;4.85;;;;;;;;;;5013449;28;20755;-74
2024/01/05 04:41:32;;;;;;;14.52;5.40;;;;;;;;;;5025921;28;20049;-75
2024/01/05 04:43:59;;;;;;;13.32;5.57;;;;;;;;;;5021109;28;20041;-74
2024/01/05 04:46:27;;;;;;;12.77;5.47;;;;;;;;;;5021867;28;20044;-72
2024/01/05 04:48:55;;;;;;;11.35;5.05;;;;;;;;;;5017986;28;20749;-72
2024/01/05 04:51:22;;;;;;;14.60;5.53;;;;;;;;;;5020741;28;20777;-74
2024/01/05 04:53:49;;;;;;;11.88;5.95;;;;;;;;;;5014000;28;20065;-74
2024/01/05 04:56:17;;;;;;;12.43;5.55;;;;;;;;;;5024347;28;20037;-72
2024/01/05 04:58:44;;;;;;;12.68;5.72;;;;;;;;;;5023208;28;20033;-72
2024/01/05 05:01:12;;;;;;;12.65;5.40;;;;;;;;;;5019745;28;20448;-72
2024/01/05 05:03:41;;;;;;;12.48;5.13;;;;;;;;;;5023050;28;20524;-72
2024/01/05 05:06:08;;;;;;;14.20;5.30;;;;;;;;;;5015802;28;20045;-74
2024/01/05 05:08:36;;;;;;;14.98;4.97;;;;;;;;;;5022329;28;20067;-72
2024/01/05 05:11:03;;;;;;;11.18;4.50;;;;;;;;;;5017633;28;20045;-72
2024/01/05 05:13:30;;;;;;;11.10;5.25;;;;;;;;;;5023049;28;20033;-74
2024/01/05 05:15:58;;;;;;;11.38;4.70;;;;;;;;;;5018110;28;20037;-74
2024/01/05 05:18:25;;;;;;;13.15;4.75;;;;;;;;;;5025912;28;20126;-72
2024/01/05 05:20:51;;;;;;;12.55;4.40;;;;;;;;;;5012473;28;20127;-72
2024/01/05 05:23:19;;;;;;;12.75;4.57;;;;;;;;;;5043270;28;20124;-74
2024/01/05 05:25:46;;;;;;;12.20;4.78;;;;;;;;;;5036260;28;20044;-74
2024/01/05 05:28:13;;;;;;;10.70;4.60;;;;;;;;;;5041034;28;20045;-74
2024/01/05 05:30:41;;;;;;;12.07;4.55;;;;;;;;;;5047105;28;20044;-74
2024/01/05 05:33:08;;;;;;;12.45;4.78;;;;;;;;;;5047259;28;20048;-72
2024/01/05 05:35:36;;;;;;;13.43;7.88;;;;;;;;;;5042965;28;20533;-72
2024/01/05 05:38:03;;;;;;;14.85;8.57;;;;;;;;;;5042731;28;20037;-73
2024/01/05 05:40:31;;;;;;;22.58;9.02;;;;;;;;;;5045420;28;20036;-73
2024/01/05 05:42:58;;;;;;;13.50;6.40;;;;;;;;;;5036030;28;20128;-73
2024/01/05 05:45:26;;;;;;;14.30;5.57;;;;;;;;;;5043804;28;20060;-72
2024/01/05 05:47:53;;;;;;;13.02;5.35;;;;;;;;;;5040119;28;20048;-73
2024/01/05 05:50:21;;;;;;;14.13;5.18;;;;;;;;;;5041806;28;20671;-72
2024/01/05 05:52:51;;;;;;;10.63;4.68;;;;;;;;;;5042286;28;20041;-73
2024/01/05 05:55:18;;;;;;;10.93;4.60;;;;;;;;;;5043582;28;20044;-75
2024/01/05 05:57:46;;;;;;;12.43;4.70;;;;;;;;;;5053973;28;20065;-72
2024/01/05 06:00:14;;;;;;;9.45;3.88;;;;;;;;;;5044605;28;20577;-72
2024/01/05 06:02:42;;;;;;;13.88;4.75;;;;;;;;;;5042570;28;20033;-73
2024/01/05 06:05:09;;;;;;;11.65;4.70;;;;;;;;;;5043839;28;20044;-72
2024/01/05 06:07:37;;;;;;;11.43;4.75;;;;;;;;;;5042915;28;20053;-72
2024/01/05 06:10:04;;;;;;;11.02;4.07;;;;;;;;;;5042585;28;20725;-73
2024/01/05 06:12:32;;;;;;;13.80;5.43;;;;;;;;;;5060124;28;20340;-72
2024/01/05 06:14:59;;;;;;;12.82;5.38;;;;;;;;;;5042057;28;20037;-73
2024/01/05 06:17:27;;;;;;;14.10;4.78;;;;;;;;;;5041681;28;20073;-74
2024/01/05 06:19:53;;;;;;;11.50;4.15;;;;;;;;;;5050903;28;20600;-72
2024/01/05 06:22:20;;;;;;;13.00;4.60;;;;;;;;;;5048901;28;20787;-73
2024/01/05 06:24:47;;;;;;;11.98;5.20;;;;;;;;;;5048742;28;20616;-72
2024/01/05 06:27:15;;;;;;;12.27;5.47;;;;;;;;;;5054242;28;20048;-73
2024/01/05 06:29:42;;;;;;;11.40;4.70;;;;;;;;;;5054401;28;20054;-73
2024/01/05 06:32:09;;;;;;;14.73;4.70;;;;;;;;;;5044737;28;20043;-74
2024/01/05 06:34:37;;;;;;;9.85;4.47;;;;;;;;;;5049461;28;20029;-73
2024/01/05 06:37:04;;;;;;;11.30;4.40;;;;;;;;;;5046550;28;20045;-73
2024/01/05 06:39:32;;;;;;;12.70;4.95;;;;;;;;;;5053730;28;20040;-73
2024/01/05 06:41:59;;;;;;;15.00;6.05;;;;;;;;;;5047633;28;20044;-73
2024/01/05 06:44:26;;;;;;;11.98;6.10;;;;;;;;;;5051059;28;20042;-73
2024/01/05 06:46:54;;;;;;;12.70;5.97;;;;;;;;;;5046986;28;20043;-72
2024/01/05 06:49:21;;;;;;;14.73;6.97;;;;;;;;;;5047039;28;20035;-73
2024/01/05 06:51:48;;;;;;;13.02;6.07;;;;;;;;;;5044673;28;20044;-73
2024/01/05 06:54:16;;;;;;;12.25;5.72;;;;;;;;;;5045990;28;20165;-73
2024/01/05 06:56:44;;;;;;;11.82;5.30;;;;;;;;;;5048649;28;20041;-72
2024/01/05 06:59:11;;;;;;;12.55;4.93;;;;;;;;;;5046547;28;20040;-72
2024/01/05 07:01:39;;;;;;;10.90;4.68;;;;;;;;;;5046947;28;20506;-72
2024/01/05 07:04:07;;;;;;;13.00;4.80;;;;;;;;;;5046384;28;20045;-72
2024/01/05 07:06:35;;;;;;;13.68;5.43;;;;;;;;;;5062342;28;20039;-71
2024/01/05 07:09:02;;;;;;;14.05;6.45;;;;;;;;;;5047752;28;20415;-73
2024/01/05 07:11:30;;;;;;;21.15;7.97;;;;;;;;;;5052658;28;20064;-73
2024/01/05 07:13:57;;;;;;;18.48;9.73;;;;;;;;;;5059904;28;20051;-72
2024/01/05 07:16:24;;;;;;;19.85;8.60;;;;;;;;;;5050298;28;20041;-72
2024/01/05 07:18:53;;;;;;;13.45;6.28;;;;;;;;;;5045135;28;20029;-72
2024/01/05 07:21:21;;;;;;;14.43;6.63;;;;;;;;;;5050410;28;20129;-72
2024/01/05 07:23:48;;;;;;;14.10;6.22;;;;;;;;;;5047897;28;20066;-71
2024/01/05 07:26:21;;;;;;;15.13;7.40;;;;;;;;;;5049798;28;20032;-73
2024/01/05 07:28:49;;;;;;;16.85;8.05;;;;;;;;;;5039350;28;20048;-70
2024/01/05 07:31:22;;;;;;;17.23;7.63;;;;;;;;;;5044530;28;20033;-71
2024/01/05 07:33:48;;;;;;;14.55;6.80;;;;;;;;;;5041965;28;20036;-73
2024/01/05 07:36:15;;;;;;;16.73;7.70;;;;;;;;;;5041949;28;20040;-73
2024/01/05 07:38:43;;;;;;;12.75;5.90;;;;;;;;;;5045889;28;20044;-73
2024/01/05 07:41:16;;;;;;;14.52;7.55;;;;;;;;;;5063446;28;20044;-73
2024/01/05 07:43:47;;;;;;;14.90;5.88;;;;;;;;;;5063494;28;20109;-73
2024/01/05 07:46:14;;;;;;;13.40;5.75;;;;;;;;;;5067722;28;20555;-73
2024/01/05 07:48:41;;;;;;;13.77;5.25;;;;;;;;;;5048357;28;20040;-73
2024/01/05 07:51:10;;;;;;;12.93;5.75;;;;;;;;;;5065651;28;20182;-73
2024/01/05 07:53:38;;;;;;;15.07;5.90;;;;;;;;;;5046903;28;20784;-75
2024/01/05 07:56:06;;;;;;;12.20;5.68;;;;;;;;;;5055465;28;20131;-73
2024/01/05 07:58:34;;;;;;;12.88;6.13;;;;;;;;;;5050801;28;20051;-72
2024/01/05 08:01:01;;;;;;;13.13;6.55;;;;;;;;;;5042973;28;20111;-72
2024/01/05 08:03:29;;;;;;;13.18;6.43;;;;;;;;;;5045063;28;20146;-73
2024/01/05 08:05:55;;;;;;;12.52;6.55;;;;;;;;;;5044008;28;20028;-76
2024/01/05 08:08:22;;;;;;;13.60;6.53;;;;;;;;;;5047310;28;20071;-77
2024/01/05 08:10:49;;;;;;;13.13;6.38;;;;;;;;;;5044823;28;20566;-78
2024/01/05 08:13:19;;;;;;;11.77;6.05;;;;;;;;;;5052856;28;20131;-76
2024/01/05 08:15:46;;;;;;;15.95;5.93;;;;;;;;;;5050244;28;20036;-76
2024/01/05 08:18:15;;;;;;;11.50;5.30;;;;;;;;;;5050684;28;20032;-76
2024/01/05 08:20:42;;;;;;;11.07;5.43;;;;;;;;;;5048860;28;20032;-76
2024/01/05 08:23:09;;;;;;;12.15;6.18;;;;;;;;;;5045584;28;20612;-76
2024/01/05 08:25:37;;;;;;;15.20;7.85;;;;;;;;;;5050550;28;20123;-75
2024/01/05 08:28:04;;;;;;;14.00;8.13;;;;;;;;;;5043327;28;21339;-76
2024/01/05 08:30:32;;;;;;;21.17;12.90;;;;;;;;;;5048153;28;20830;-77
2024/01/05 08:32:59;;;;;;;16.15;8.18;;;;;;;;;;5042082;28;20032;-76
2024/01/05 08:35:27;;;;;;;13.27;6.07;;;;;;;;;;5050350;28;20041;-75
2024/01/05 08:37:53;;;;;;;16.98;10.82;;;;;;;;;;5045699;28;20033;-76
2024/01/05 08:40:22;;;;;;;14.70;9.35;;;;;;;;;;5046166;28;20565;-76
2024/01/05 08:42:49;;;;;;;13.15;6.82;;;;;;;;;;5044193;28;20036;-76
2024/01/05 08:45:18;;;;;;;18.52;11.85;;;;;;;;;;5051658;28;20041;-73
2024/01/05 08:47:46;;;;;;;13.32;6.88;;;;;;;;;;5041374;28;20040;-75
2024/01/05 08:50:14;;;;;;;12.82;7.80;;;;;;;;;;5046883;28;20051;-77
2024/01/05 08:52:41;;;;;;;13.50;6.60;;;;;;;;;;5045754;28;20047;-76
2024/01/05 08:55:09;;;;;;;9.65;3.80;;;;;;;;;;5043379;28;20111;-75
2024/01/05 08:57:36;;;;;;;13.15;7.32;;;;;;;;;;5048831;28;20158;-75
2024/01/05 09:00:04;;;;;;;8.75;2.85;;;;;;;;;;5061003;28;23392;-76
2024/01/05 09:02:31;;;;;;;9.43;4.05;;;;;;;;;;5042843;28;20063;-78
2024/01/05 09:04:58;;;;;;;9.07;3.53;;;;;;;;;;5048039;28;20723;-77
2024/01/05 09:07:26;;;;;;;12.80;3.78;;;;;;;;;;5050195;28;20258;-76
2024/01/05 09:09:53;;;;;;;8.00;2.70;;;;;;;;;;5037602;28;20035;-76
2024/01/05 09:12:21;;;;;;;8.02;3.13;;;;;;;;;;5037326;28;20045;-77
2024/01/05 09:14:48;;;;;;;7.00;2.40;;;;;;;;;;5032213;28;20185;-76
2024/01/05 09:17:17;;;;;;;6.95;2.47;;;;;;;;;;5052662;28;20109;-76
2024/01/05 09:19:44;;;;;;;7.03;2.20;;;;;;;;;;5049967;28;20032;-75
2024/01/05 09:22:12;;;;;;;6.07;2.30;;;;;;;;;;5035468;28;20111;-75
2024/01/05 09:24:39;;;;;;;6.82;2.63;;;;;;;;;;5033801;28;20044;-76
2024/01/05 09:27:06;;;;;;;11.20;3.03;;;;;;;;;;5032105;28;20037;-75
2024/01/05 09:29:34;;;;;;;9.65;2.63;;;;;;;;;;5040718;28;20121;-75
2024/01/05 09:32:01;;;;;;;6.35;2.45;;;;;;;;;;5045592;28;20041;-74
2024/01/05 09:34:28;;;;;;;7.63;2.70;;;;;;;;;;5037210;28;20126;-76
2024/01/05 09:36:55;;;;;;;8.02;2.88;;;;;;;;;;5036636;28;20047;-76
2024/01/05 09:39:23;;;;;;;11.75;3.08;;;;;;;;;;5037063;28;20130;-76
2024/01/05 09:41:50;;;;;;;9.43;3.13;;;;;;;;;;5049075;28;20109;-75
2024/01/05 09:44:18;;;;;;;10.10;2.95;;;;;;;;;;5040192;28;20114;-75
2024/01/05 09:46:45;;;;;;;9.52;2.88;;;;;;;;;;5034691;28;20025;-76
2024/01/05 09:49:17;;;;;;;10.40;4.47;;;;;;;;;;5046485;28;20850;-74
2024/01/05 09:51:45;;;;;;;7.40;2.72;;;;;;;;;;5018059;28;20057;-74
2024/01/05 09:54:13;;;;;;;6.95;2.45;;;;;;;;;;5053357;28;20044;-75
2024/01/05 09:56:42;;;;;;;9.77;3.25;;;;;;;;;;5035225;28;20045;-76
2024/01/05 09:59:10;;;;;;;7.55;2.40;;;;;;;;;;5035227;28;20469;-76
2024/01/05 10:01:40;;;;;;;7.97;2.47;;;;;;;;;;5037346;28;20129;-75
2024/01/05 10:04:09;;;;;;;7.28;2.25;;;;;;;;;;5037487;28;20139;-74
2024/01/05 10:06:36;;;;;;;6.32;2.00;;;;;;;;;;5040185;28;20036;-76
2024/01/05 10:20:44;;;;;;;8.45;3.33;;;;;;;;;;5018177;27;20521;-74
2024/01/05 10:23:11;;;;;;;7.95;2.35;;;;;;;;;;5017569;27;20098;-75
2024/01/05 10:25:40;;;;;;;7.80;2.50;;;;;;;;;;5010470;27;20060;-73
2024/01/05 10:28:24;;;;;;;8.30;2.55;;;;;;;;;;5010148;28;20033;-73
2024/01/05 10:30:52;;;;;;;8.30;2.58;;;;;;;;;;5020294;27;20029;-73
2024/01/05 10:33:19;;;;;;;8.93;2.20;;;;;;;;;;5013037;28;20029;-72
2024/01/05 10:35:52;;;;;;;6.90;1.83;;;;;;;;;;5010001;28;20035;-72
2024/01/05 10:38:19;;;;;;;6.82;1.80;;;;;;;;;;4994787;28;20034;-73
2024/01/05 10:40:45;;;;;;;5.88;1.60;;;;;;;;;;5014240;27;20031;-73
2024/01/05 10:43:12;;;;;;;7.80;2.15;;;;;;;;;;5027291;27;20066;-75
2024/01/05 10:45:40;;;;;;;6.05;2.10;;;;;;;;;;5021495;27;20031;-75
2024/01/05 10:48:08;;;;;;;6.93;1.67;;;;;;;;;;5013699;27;20045;-74
2024/01/05 10:50:40;;;;;;;7.10;1.70;;;;;;;;;;5012330;28;20129;-73
2024/01/05 10:53:10;;;;;;;6.97;2.22;;;;;;;;;;5005519;28;20042;-73
2024/01/05 10:55:42;;;;;;;7.53;2.15;;;;;;;;;;5013810;27;20587;-73
2024/01/05 10:58:09;;;;;;;9.52;3.10;;;;;;;;;;5009401;27;20519;-74
2024/01/05 11:00:39;;;;;;;9.35;2.22;;;;;;;;;;5011953;27;20057;-73
2024/01/05 11:03:13;;;;;;;6.72;2.00;;;;;;;;;;5006548;27;20096;-74
2024/01/05 11:05:41;;;;;;;7.65;2.20;;;;;;;;;;5006228;27;20033;-72
2024/01/05 11:08:15;;;;;;;7.55;2.10;;;;;;;;;;5009829;27;20045;-73
2024/01/05 11:10:55;;;;;;;6.50;2.03;;;;;;;;;;5013013;27;20524;-74
2024/01/05 11:13:41;;;;;;;6.22;1.70;;;;;;;;;;5019464;28;20423;-73
2024/01/05 11:16:26;;;;;;;6.45;1.60;;;;;;;;;;5007589;28;20030;-73
2024/01/05 11:18:58;;;;;;;6.97;1.67;;;;;;;;;;5013140;28;20064;-72
2024/01/05 11:21:34;;;;;;;10.40;2.38;;;;;;;;;;4998497;28;20041;-73
2024/01/05 11:24:01;;;;;;;4.57;1.27;;;;;;;;;;5005335;28;20030;-72
2024/01/05 11:26:36;;;;;;;8.10;1.73;;;;;;;;;;4995941;28;20038;-75
2024/01/05 11:29:05;;;;;;;7.90;1.70;;;;;;;;;;4994450;28;20757;-73
2024/01/05 11:31:48;;;;;;;8.93;1.85;;;;;;;;;;5016706;28;20136;-73
2024/01/05 11:34:37;;;;;;;9.07;1.73;;;;;;;;;;5007679;28;20702;-73
2024/01/05 11:37:23;;;;;;;9.48;1.95;;;;;;;;;;5003929;28;20202;-73
2024/01/05 11:39:54;;;;;;;8.23;1.90;;;;;;;;;;5002494;28;20066;-73
2024/01/05 11:42:27;;;;;;;6.65;1.70;;;;;;;;;;5001174;28;20846;-72
2024/01/05 11:44:57;;;;;;;8.20;2.05;;;;;;;;;;5002330;28;20349;-72
2024/01/05 11:47:42;;;;;;;10.70;2.13;;;;;;;;;;4999337;28;20050;-72
2024/01/05 11:50:24;;;;;;;8.65;2.20;;;;;;;;;;4995360;28;20031;-72
2024/01/05 11:53:10;;;;;;;12.30;2.38;;;;;;;;;;4996521;28;20044;-72
2024/01/05 11:55:40;;;;;;;10.90;2.03;;;;;;;;;;5005795;28;20045;-72
2024/01/05 11:58:07;;;;;;;8.45;1.85;;;;;;;;;;4983821;28;20202;-73
2024/01/05 12:00:35;;;;;;;9.82;2.22;;;;;;;;;;4994984;28;20046;-72
2024/01/05 12:03:03;;;;;;;7.43;1.90;;;;;;;;;;5007582;28;20082;-73
2024/01/05 12:05:32;;;;;;;8.95;2.10;;;;;;;;;;5000431;28;20106;-72
2024/01/05 12:08:07;;;;;;;12.32;2.45;;;;;;;;;;4995631;28;20087;-72
2024/01/05 12:10:34;;;;;;;6.47;1.70;;;;;;;;;;5077402;27;20558;-73
2024/01/05 12:13:01;;;;;;;8.90;2.15;;;;;;;;;;4996602;28;20107;-72
2024/01/05 12:15:29;;;;;;;11.75;2.30;;;;;;;;;;4990576;28;20144;-73
2024/01/05 12:18:08;;;;;;;11.23;2.08;;;;;;;;;;5004462;28;20091;-74
2024/01/05 12:20:35;;;;;;;9.32;2.15;;;;;;;;;;5000319;28;20819;-73
2024/01/05 12:23:02;;;;;;;7.93;2.08;;;;;;;;;;4995891;28;20029;-74
2024/01/05 12:25:29;;;;;;;9.27;2.28;;;;;;;;;;5012218;28;20037;-73
2024/01/05 12:28:01;;;;;;;9.82;2.60;;;;;;;;;;5003406;28;20077;-74
2024/01/05 12:30:28;;;;;;;9.00;2.15;;;;;;;;;;5006679;28;20030;-73
2024/01/05 12:32:55;;;;;;;7.07;2.40;;;;;;;;;;5009863;28;20050;-73
2024/01/05 12:35:26;;;;;;;8.90;1.85;;;;;;;;;;4997621;27;20147;-75
2024/01/05 12:37:57;;;;;;;8.63;2.20;;;;;;;;;;4998400;28;20039;-74
2024/01/05 12:40:25;;;;;;;6.40;1.90;;;;;;;;;;4996456;28;20029;-74
2024/01/05 12:42:56;;;;;;;9.40;2.75;;;;;;;;;;4997360;28;20033;-75
2024/01/05 12:45:26;;;;;;;6.88;2.10;;;;;;;;;;4996989;28;20109;-74
2024/01/05 12:47:53;;;;;;;10.23;4.97;;;;;;;;;;4998579;28;20026;-73
2024/01/05 12:50:27;;;;;;;6.90;2.05;;;;;;;;;;4992718;28;20039;-73
2024/01/05 12:52:55;;;;;;;8.30;2.03;;;;;;;;;;4988846;28;20094;-73
2024/01/05 12:55:31;;;;;;;7.78;3.28;;;;;;;;;;5002320;28;20087;-73
2024/01/05 12:58:02;;;;;;;6.97;2.20;;;;;;;;;;4984410;28;20038;-71
2024/01/05 13:00:28;;;;;;;7.55;2.15;;;;;;;;;;5000928;28;20033;-72
2024/01/05 13:02:54;;;;;;;8.60;3.58;;;;;;;;;;4996760;28;20034;-73
2024/01/05 13:05:24;;;;;;;9.40;4.32;;;;;;;;;;5000952;28;20030;-71
2024/01/05 13:07:51;;;;;;;6.20;1.95;;;;;;;;;;4994644;28;20038;-72
2024/01/05 13:10:17;;;;;;;6.38;2.00;;;;;;;;;;4994919;27;20056;-73
2024/01/05 13:12:46;;;;;;;8.45;3.40;;;;;;;;;;5006404;28;20143;-71
2024/01/05 13:15:15;;;;;;;8.07;2.60;;;;;;;;;;4990005;28;20193;-73
2024/01/05 13:17:46;;;;;;;6.88;2.83;;;;;;;;;;4995103;28;20038;-73
2024/01/05 13:20:13;;;;;;;6.30;2.17;;;;;;;;;;4999804;28;20052;-73
2024/01/05 13:22:41;;;;;;;8.90;2.75;;;;;;;;;;4991924;28;20041;-73
2024/01/05 13:25:11;;;;;;;8.57;3.60;;;;;;;;;;5001692;28;20478;-73
2024/01/05 13:27:40;;;;;;;8.32;2.53;;;;;;;;;;5069144;27;20041;-74
2024/01/05 13:30:09;;;;;;;7.65;2.40;;;;;;;;;;4995906;28;20038;-74
2024/01/05 13:32:37;;;;;;;8.18;2.97;;;;;;;;;;5000318;28;20048;-74
2024/01/05 13:35:06;;;;;;;6.82;2.13;;;;;;;;;;4992005;28;20069;-74
2024/01/05 13:37:35;;;;;;;6.88;2.58;;;;;;;;;;4989169;28;20661;-74
2024/01/05 13:40:03;;;;;;;8.48;2.90;;;;;;;;;;4995150;28;20406;-74
2024/01/05 13:42:31;;;;;;;7.10;2.58;;;;;;;;;;4988927;28;20050;-74
2024/01/05 13:44:58;;;;;;;6.22;2.72;;;;;;;;;;4987425;28;20061;-74
2024/01/05 13:47:28;;;;;;;7.70;2.65;;;;;;;;;;4996956;28;20095;-74
2024/01/05 13:49:54;;;;;;;7.50;2.35;;;;;;;;;;4991785;28;20576;-75
2024/01/05 13:52:22;;;;;;;7.60;2.00;;;;;;;;;;4992807;28;20934;-74
2024/01/05 13:54:49;;;;;;;8.25;2.35;;;;;;;;;;4997390;28;20033;-75
2024/01/05 13:57:18;;;;;;;9.02;3.00;;;;;;;;;;4986776;28;20034;-74
2024/01/05 13:59:44;;;;;;;8.02;3.70;;;;;;;;;;5000566;28;20025;-74
2024/01/05 14:02:10;;;;;;;6.88;2.20;;;;;;;;;;4985762;28;20429;-75
2024/01/05 14:04:38;;;;;;;8.00;2.45;;;;;;;;;;4983103;28;20579;-75
2024/01/05 14:09:41;;;;;;;8.43;2.92;;;;;;;;;;5581161;22;20064;-74
2024/01/05 14:12:07;;;;;;;9.93;2.40;;;;;;;;;;5008583;28;20265;-74
2024/01/05 14:14:33;;;;;;;4.15;1.48;;;;;;;;;;5032665;28;20571;-74
2024/01/05 14:17:00;;;;;;;6.05;2.00;;;;;;;;;;5018718;28;20029;-75
2024/01/05 14:19:26;;;;;;;7.35;1.90;;;;;;;;;;5040607;28;20025;-74
2024/01/05 14:21:52;;;;;;;7.65;2.10;;;;;;;;;;5022318;28;20101;-73
2024/01/05 14:24:19;;;;;;;7.47;2.28;;;;;;;;;;5009593;28;20037;-74
2024/01/05 14:26:47;;;;;;;8.10;3.03;;;;;;;;;;5017815;28;20040;-75
2024/01/05 14:29:13;;;;;;;7.05;2.00;;;;;;;;;;5034264;28;20033;-74
2024/01/05 14:31:39;;;;;;;7.65;2.47;;;;;;;;;;5031135;28;20522;-73
2024/01/05 14:34:06;;;;;;;8.88;2.55;;;;;;;;;;5008229;28;20569;-74
2024/01/05 14:36:32;;;;;;;7.30;2.30;;;;;;;;;;5031380;28;20025;-74
2024/01/05 14:38:59;;;;;;;7.55;2.80;;;;;;;;;;5033253;28;20065;-73
2024/01/05 14:41:26;;;;;;;6.65;2.30;;;;;;;;;;5022684;28;20044;-73
2024/01/05 14:43:52;;;;;;;9.80;2.70;;;;;;;;;;5027795;28;20269;-74
2024/01/05 14:46:19;;;;;;;6.13;2.00;;;;;;;;;;5023888;28;20133;-74
2024/01/05 14:48:57;;;;;;;7.07;2.47;;;;;;;;;;5043078;28;20033;-74
2024/01/05 14:51:26;;;;;;;8.57;2.67;;;;;;;;;;5045543;28;20028;-76
2024/01/05 14:53:53;;;;;;;7.93;2.42;;;;;;;;;;5040114;28;20037;-74
2024/01/05 14:56:19;;;;;;;7.00;2.20;;;;;;;;;;5041354;28;20056;-74